Estación Meteorológica Peña el Pijo (Robertgarden) [ 01/30/23 15:24:00 CET ]

Fecha Hora Presion(HPa) Temp (°C) Humedad % Rocio (°C) Viento ( m/s) Direccion Lluvia 1Hora(mm) Lluvia 24H(mm) LLuvia Total(mm)
2012-Nov-04 01:01:15 1004.500 13.5 94 12.5         178.19
2012-Nov-04 02:03:15 1004.200 14.3 93 13.2         178.19
2012-Nov-04 03:01:14 1004.300 13.8 91 12.4         178.19
2012-Nov-04 04:01:11 1003.400 12.9 92 11.6         178.19
2012-Nov-04 05:01:14 1002.800 12.9 92 11.6         178.19
2012-Nov-04 06:01:13 1002.800 12.7 92 11.4         178.19
2012-Nov-04 07:01:12 1002.500 13.1 93 12.0         178.19
2012-Nov-04 08:01:14 1002.100 12.3 93 11.2         178.19
2012-Nov-04 09:01:17 1002.400 14.9 87 12.8         178.19
2012-Nov-04 10:01:12 1002.000 18.2 71 12.9         178.19
2012-Nov-04 11:01:13 1002.000 19.1 64 12.1 1.8 N     178.19
2012-Nov-04 12:01:14 1001.600 20.9 59 12.6 1.6 NNE     178.19
2012-Nov-04 13:01:11 1000.400 21.4 56 12.2 2.6 SSE     178.19
2012-Nov-04 14:01:15 999.800 21.8 54 12.0         178.19
2012-Nov-04 15:01:14 1001.200 17.6 75 13.1 1.3 SSW     178.19
2012-Nov-04 16:01:15 1002.200 17.8 75 13.3         178.19
2012-Nov-04 17:01:18 1001.900 14.2 85 11.7         178.19
2012-Nov-04 18:01:21 1000.900 14.1 86 11.8         178.19
2012-Nov-04 19:01:12 1001.100 13.8 88 11.8         178.19
2012-Nov-04 20:01:13 1001.400 14.1 89 12.3         178.19
2012-Nov-04 21:01:14 1001.600 14.9 85 12.4         178.19
2012-Nov-04 22:01:18 1002.100 14.8 84 12.1 3.5 WSW     178.19
2012-Nov-04 23:01:12 1002.600 14.4 84 11.7         178.19

Temperatura Máxima:21°    Temperatura Mínima:12°
Presión Máxima:1004.500 Hpa    Presión Mínima:999.800 Hpa


Volver